createdAt,value
2022-09-05T00:02:49.148Z,70.06
2022-09-05T00:05:39.875Z,69.34
2022-09-05T00:08:33.263Z,69.30
2022-09-05T00:11:42.462Z,69.15
2022-09-05T00:14:12.763Z,69.13
2022-09-05T00:16:59.448Z,69.45
2022-09-05T00:24:18.813Z,69.42
2022-09-05T00:24:26.449Z,69.65
2022-09-05T00:25:50.868Z,69.09
2022-09-05T00:28:31.333Z,69.38
2022-09-05T00:31:54.634Z,69.90
2022-09-05T00:34:13.984Z,70.34
2022-09-05T00:36:46.609Z,69.96
2022-09-05T00:39:19.595Z,69.55
2022-09-05T00:41:50.611Z,69.86
2022-09-05T00:44:23.478Z,70.07
2022-09-05T00:47:02.406Z,69.65
2022-09-05T00:49:38.326Z,69.84
2022-09-05T00:52:11.677Z,70.04
2022-09-05T00:54:51.666Z,70.06
2022-09-05T00:57:39.924Z,69.54
2022-09-05T01:00:18.092Z,69.95
2022-09-05T01:03:09.719Z,69.80
2022-09-05T01:05:49.328Z,70.45
2022-09-05T01:08:32.214Z,70.45
2022-09-05T01:11:09.319Z,70.82
2022-09-05T01:13:46.572Z,70.39
2022-09-05T01:16:24.400Z,69.58
2022-09-05T01:19:06.629Z,69.34
2022-09-05T01:21:50.565Z,70.13
2022-09-05T01:25:07.552Z,70.37
2022-09-05T01:29:13.212Z,70.11
2022-09-05T01:30:42.041Z,70.01
2022-09-05T01:33:20.411Z,70.44
2022-09-05T01:36:23.867Z,70.35
2022-09-05T01:40:11.607Z,70.43
2022-09-05T01:41:58.512Z,70.71
2022-09-05T01:44:49.271Z,71.15
2022-09-05T01:47:32.161Z,70.84
2022-09-05T01:50:10.769Z,71.06
2022-09-05T01:53:07.754Z,70.99
2022-09-05T01:56:05.078Z,70.55
2022-09-05T01:58:52.885Z,70.94
2022-09-05T02:01:32.671Z,70.87
2022-09-05T02:04:44.134Z,71.26
2022-09-05T02:07:30.909Z,71.65
2022-09-05T02:10:36.492Z,71.55
2022-09-05T02:13:17.669Z,70.99
2022-09-05T02:15:59.868Z,70.69
2022-09-05T02:18:45.073Z,70.01
2022-09-05T02:21:23.423Z,70.00
2022-09-05T02:24:02.621Z,70.27
2022-09-05T02:26:37.204Z,70.17
2022-09-05T02:29:28.444Z,70.03
2022-09-05T02:32:02.989Z,70.60
2022-09-05T02:34:40.885Z,70.12
2022-09-05T02:37:15.397Z,70.49
2022-09-05T02:45:10.274Z,71.40
2022-09-05T02:45:12.206Z,70.55
2022-09-05T02:45:45.678Z,71.36
2022-09-05T02:48:22.879Z,70.93
2022-09-05T02:55:58.787Z,71.29
2022-09-05T02:57:37.802Z,71.04
2022-09-05T02:57:40.794Z,71.06
2022-09-05T03:00:13.720Z,70.40
2022-09-05T03:03:04.749Z,70.32
2022-09-05T03:05:37.447Z,70.56
2022-09-05T03:08:29.034Z,71.00
2022-09-05T03:11:35.405Z,71.36
2022-09-05T03:14:41.582Z,71.56
2022-09-05T03:18:19.864Z,72.20
2022-09-05T03:21:30.696Z,71.16
2022-09-05T03:24:28.127Z,70.70
2022-09-05T03:27:32.483Z,70.22
2022-09-05T03:30:08.455Z,70.21
2022-09-05T03:33:05.001Z,70.48
2022-09-05T03:36:06.269Z,70.64
2022-09-05T03:39:13.118Z,71.08
2022-09-05T03:42:15.078Z,71.50
2022-09-05T03:45:01.236Z,71.06
2022-09-05T03:48:02.239Z,70.56
2022-09-05T03:57:07.415Z,71.54
2022-09-05T03:57:26.941Z,71.53
2022-09-05T03:57:41.699Z,71.94
2022-09-05T04:00:20.901Z,71.53
2022-09-05T04:08:08.564Z,71.35
2022-09-05T04:08:15.900Z,72.36
2022-09-05T04:09:04.544Z,72.39
2022-09-05T04:11:37.720Z,72.52
2022-09-05T04:14:11.029Z,73.08
2022-09-05T04:16:51.187Z,73.07
2022-09-05T04:19:27.453Z,72.51
2022-09-05T04:22:06.474Z,72.82
2022-09-05T04:24:44.031Z,72.96
2022-09-05T04:27:32.604Z,72.31
2022-09-05T04:30:06.564Z,72.30
2022-09-05T04:33:01.839Z,71.83
2022-09-05T04:35:39.138Z,72.11
2022-09-05T04:38:12.868Z,70.95
2022-09-05T04:40:43.717Z,70.80
2022-09-05T04:43:20.145Z,70.69
2022-09-05T04:45:53.418Z,70.37
2022-09-05T04:48:26.885Z,70.74
2022-09-05T04:51:12.890Z,70.97
2022-09-05T04:54:01.073Z,71.05
2022-09-05T04:56:33.725Z,70.79
2022-09-05T05:05:23.661Z,70.66
2022-09-05T05:06:10.845Z,70.18
2022-09-05T05:06:11.039Z,70.29
2022-09-05T05:07:51.018Z,70.06
2022-09-05T05:14:17.607Z,70.05
2022-09-05T05:18:03.636Z,69.78
2022-09-05T05:18:10.382Z,69.21
2022-09-05T05:19:21.361Z,69.02
2022-09-05T05:21:53.582Z,68.61
2022-09-05T05:24:24.943Z,68.36
2022-09-05T05:26:59.785Z,68.12
2022-09-05T05:29:38.448Z,68.34
2022-09-05T05:32:07.960Z,68.69
2022-09-05T05:34:44.124Z,68.54
2022-09-05T05:37:19.503Z,68.52
2022-09-05T05:39:52.556Z,68.17
2022-09-05T05:42:24.005Z,68.71
2022-09-05T05:44:54.723Z,68.41
2022-09-05T05:47:31.488Z,68.89
2022-09-05T05:50:05.593Z,68.35
2022-09-05T05:52:58.071Z,68.11
2022-09-05T05:55:53.504Z,68.72
2022-09-05T05:58:37.813Z,68.38
2022-09-05T06:01:49.897Z,68.41
2022-09-05T06:04:53.446Z,67.80
2022-09-05T06:07:33.336Z,68.16
2022-09-05T06:14:51.475Z,68.50
2022-09-05T06:14:58.710Z,69.08
2022-09-05T06:17:11.503Z,68.94
2022-09-05T06:20:56.679Z,69.00
2022-09-05T06:23:40.340Z,69.45
2022-09-05T06:26:40.928Z,69.44
2022-09-05T06:29:18.323Z,68.96
2022-09-05T06:32:05.011Z,68.80
2022-09-05T06:35:00.194Z,68.19
2022-09-05T06:37:39.425Z,68.18
2022-09-05T06:40:18.505Z,68.05
2022-09-05T06:43:05.145Z,67.76
2022-09-05T06:45:44.805Z,67.99
2022-09-05T06:48:36.575Z,68.17
2022-09-05T06:51:44.935Z,68.22
2022-09-05T06:54:35.507Z,68.37
2022-09-05T06:57:30.766Z,67.88
2022-09-05T07:00:21.984Z,67.15
2022-09-05T07:03:11.760Z,67.61
2022-09-05T07:05:45.068Z,67.14
2022-09-05T07:08:36.113Z,66.79
2022-09-05T07:11:15.561Z,67.07
2022-09-05T07:13:55.806Z,66.83
2022-09-05T07:16:38.255Z,66.80
2022-09-05T07:19:18.019Z,67.06
2022-09-05T07:21:56.050Z,66.84
2022-09-05T07:24:54.159Z,66.87
2022-09-05T07:27:30.209Z,66.45
2022-09-05T07:30:01.688Z,66.56
2022-09-05T07:32:32.592Z,66.81
2022-09-05T07:35:03.771Z,66.75
2022-09-05T07:37:37.857Z,66.25
2022-09-05T07:40:25.257Z,66.03
2022-09-05T07:43:09.773Z,67.28
2022-09-05T07:45:55.445Z,67.37
2022-09-05T07:48:34.665Z,66.44
2022-09-05T07:56:46.313Z,66.77
2022-09-05T07:57:00.665Z,66.26
2022-09-05T07:57:20.781Z,66.71
2022-09-05T07:59:37.694Z,66.32
2022-09-05T08:02:10.561Z,66.41
2022-09-05T08:04:40.898Z,65.64
2022-09-05T08:07:47.588Z,65.23
2022-09-05T08:10:08.465Z,65.13
2022-09-05T08:13:22.864Z,64.40
2022-09-05T08:15:49.439Z,63.64
2022-09-05T08:18:30.667Z,63.20
2022-09-05T08:21:05.181Z,63.40
2022-09-05T08:23:52.847Z,62.51
2022-09-05T08:26:35.610Z,61.46
2022-09-05T08:29:11.218Z,60.49
2022-09-05T08:31:43.826Z,59.44
2022-09-05T08:34:18.633Z,58.16
2022-09-05T08:37:01.484Z,57.42
2022-09-05T08:39:32.387Z,57.23
2022-09-05T08:42:10.654Z,56.58
2022-09-05T08:46:43.162Z,56.08
2022-09-05T08:47:45.584Z,55.77
2022-09-05T08:50:26.775Z,55.20
2022-09-05T08:53:18.691Z,54.13
2022-09-05T08:56:02.537Z,53.82
2022-09-05T08:58:47.181Z,53.30
2022-09-05T09:01:22.807Z,52.18
2022-09-05T09:04:06.131Z,51.33
2022-09-05T09:07:36.718Z,51.06
2022-09-05T09:09:52.057Z,50.12
2022-09-05T09:12:50.237Z,49.23
2022-09-05T09:15:24.824Z,48.91
2022-09-05T09:17:54.061Z,47.58
2022-09-05T09:20:36.570Z,48.21
2022-09-05T09:23:28.880Z,47.07
2022-09-05T09:26:11.469Z,45.33
2022-09-05T09:28:48.185Z,46.36
2022-09-05T09:31:32.593Z,46.94
2022-09-05T09:34:23.046Z,47.75
2022-09-05T09:37:15.892Z,49.10
2022-09-05T09:40:15.516Z,47.09
2022-09-05T09:42:51.604Z,46.28
2022-09-05T09:45:33.535Z,46.68
2022-09-05T09:48:48.870Z,47.43
2022-09-05T09:51:37.632Z,48.35
2022-09-05T09:54:25.767Z,48.10
2022-09-05T09:57:24.112Z,46.86
2022-09-05T10:00:15.732Z,46.87
2022-09-05T10:05:11.862Z,45.73
2022-09-05T10:10:45.060Z,47.79
2022-09-05T10:10:46.165Z,47.30
2022-09-05T10:12:49.795Z,47.36
2022-09-05T10:15:31.495Z,46.01
2022-09-05T10:18:25.293Z,44.31
2022-09-05T10:21:31.428Z,45.68
2022-09-05T10:24:31.767Z,46.43
2022-09-05T10:27:33.587Z,48.07
2022-09-05T10:30:12.464Z,48.73
2022-09-05T10:35:07.718Z,49.38
2022-09-05T10:35:45.484Z,49.25
2022-09-05T10:38:20.225Z,49.28
2022-09-05T10:41:20.974Z,48.75
2022-09-05T10:43:50.709Z,49.21
2022-09-05T10:46:50.204Z,49.49
2022-09-05T10:49:24.786Z,48.41
2022-09-05T10:52:05.415Z,48.75
2022-09-05T10:55:15.124Z,48.90
2022-09-05T10:57:57.401Z,48.69
2022-09-05T11:02:22.085Z,48.84
2022-09-05T11:03:46.673Z,49.29
2022-09-05T11:06:20.953Z,49.10
2022-09-05T11:09:03.113Z,48.88
2022-09-05T11:11:41.363Z,48.78
2022-09-05T11:14:29.585Z,48.89
2022-09-05T11:17:10.143Z,48.49
2022-09-05T11:19:42.795Z,48.60
2022-09-05T11:22:23.512Z,48.15
2022-09-05T11:24:56.748Z,48.05
2022-09-05T11:27:32.454Z,47.47
2022-09-05T11:30:05.565Z,46.38
2022-09-05T11:36:33.722Z,45.34
2022-09-05T11:39:52.868Z,44.00
2022-09-05T11:39:57.726Z,42.16
2022-09-05T11:42:21.605Z,40.89
2022-09-05T11:45:07.399Z,40.75
2022-09-05T11:48:13.568Z,40.34
2022-09-05T11:51:28.300Z,40.46
2022-09-05T11:54:35.299Z,39.19
2022-09-05T11:57:33.286Z,35.42
2022-09-05T12:00:32.896Z,34.51
2022-09-05T12:03:56.495Z,33.83
2022-09-05T12:06:47.798Z,34.28
2022-09-05T12:09:33.212Z,34.54
2022-09-05T12:12:32.812Z,35.63
2022-09-05T12:15:16.944Z,36.24
2022-09-05T12:18:00.575Z,35.97
2022-09-05T12:20:43.282Z,37.26
2022-09-05T12:23:53.763Z,38.16
2022-09-05T12:27:41.873Z,38.35
2022-09-05T12:29:33.892Z,37.99
2022-09-05T12:32:30.991Z,37.82
2022-09-05T12:36:12.451Z,38.47
2022-09-05T12:40:55.752Z,38.06
2022-09-05T12:41:34.469Z,38.39
2022-09-05T12:44:20.916Z,38.13
2022-09-05T12:46:26.161Z,38.21
2022-09-05T12:49:06.720Z,39.08
2022-09-05T12:51:45.448Z,39.19
2022-09-05T12:54:33.157Z,39.29
2022-09-05T13:01:08.097Z,40.14
2022-09-05T13:03:03.321Z,39.54
2022-09-05T13:03:15.402Z,40.18
2022-09-05T13:05:52.714Z,39.98
2022-09-05T13:08:24.206Z,40.50
2022-09-05T13:14:49.602Z,39.68
2022-09-05T13:14:56.430Z,39.32
2022-09-05T13:16:42.179Z,40.36
2022-09-05T13:19:28.310Z,39.37
2022-09-05T13:22:01.194Z,39.59
2022-09-05T13:24:34.143Z,39.41
2022-09-05T13:27:08.629Z,38.84
2022-09-05T13:31:01.656Z,41.13
2022-09-05T13:37:58.215Z,41.05
2022-09-05T13:38:11.853Z,40.11
2022-09-05T13:38:48.935Z,39.89
2022-09-05T13:41:28.371Z,39.13
2022-09-05T13:44:10.315Z,40.97
2022-09-05T13:46:58.590Z,41.99
2022-09-05T13:49:32.262Z,41.06
2022-09-05T13:52:19.731Z,39.61
2022-09-05T13:54:53.746Z,39.44
2022-09-05T13:57:34.752Z,41.41
2022-09-05T14:00:32.167Z,41.57
2022-09-05T14:03:38.286Z,42.16
2022-09-05T14:06:41.210Z,41.21
2022-09-05T14:09:36.740Z,39.73
2022-09-05T14:12:15.743Z,41.36
2022-09-05T14:17:56.413Z,42.56
2022-09-05T14:20:49.475Z,40.65
2022-09-05T14:23:19.751Z,41.93
2022-09-05T14:25:52.969Z,40.65
2022-09-05T14:28:27.922Z,41.66
2022-09-05T14:32:41.178Z,42.31
2022-09-05T14:37:52.922Z,41.31
2022-09-05T14:37:55.739Z,40.41
2022-09-05T14:40:30.855Z,40.42
2022-09-05T14:43:37.530Z,39.88
2022-09-05T14:46:21.069Z,41.07
2022-09-05T14:49:10.807Z,42.60
2022-09-05T14:51:46.669Z,43.21
2022-09-05T14:58:16.212Z,39.70
2022-09-05T15:02:50.052Z,40.76
2022-09-05T15:03:03.662Z,39.00
2022-09-05T15:05:41.147Z,38.58
2022-09-05T15:09:21.400Z,40.29
2022-09-05T15:12:20.230Z,38.53
2022-09-05T15:13:58.167Z,39.95
2022-09-05T15:16:26.789Z,40.95
2022-09-05T15:18:56.315Z,40.51
2022-09-05T15:21:33.520Z,40.15
2022-09-05T15:24:13.445Z,40.64
2022-09-05T15:26:51.202Z,41.50
2022-09-05T15:29:24.703Z,39.58
2022-09-05T15:31:58.992Z,38.94
2022-09-05T15:34:39.625Z,39.09
2022-09-05T15:37:24.131Z,39.84
2022-09-05T15:40:02.971Z,38.33
2022-09-05T15:42:33.482Z,39.44
2022-09-05T15:45:10.146Z,39.33
2022-09-05T15:47:40.067Z,40.72
2022-09-05T15:50:21.898Z,41.13
2022-09-05T15:52:55.595Z,41.23
2022-09-05T15:55:25.143Z,41.46
2022-09-05T15:57:56.527Z,40.27
2022-09-05T16:00:51.320Z,39.78
2022-09-05T16:04:19.919Z,41.05
2022-09-05T16:10:29.838Z,41.64
2022-09-05T16:10:49.438Z,41.91
2022-09-05T16:12:31.955Z,41.31
2022-09-05T16:15:46.601Z,41.72
2022-09-05T16:23:27.978Z,42.35
2022-09-05T16:23:32.504Z,41.09
2022-09-05T16:23:42.825Z,40.78
2022-09-05T16:26:24.826Z,41.41
2022-09-05T16:28:58.523Z,40.92
2022-09-05T16:31:35.435Z,39.88
2022-09-05T16:34:11.682Z,40.83
2022-09-05T16:37:00.855Z,39.40
2022-09-05T16:39:42.740Z,38.55
2022-09-05T16:42:16.823Z,38.29
2022-09-05T16:44:50.565Z,38.20
2022-09-05T16:47:25.441Z,37.65
2022-09-05T16:50:02.560Z,38.10
2022-09-05T16:52:38.219Z,37.95
2022-09-05T16:55:29.342Z,37.79
2022-09-05T16:58:02.471Z,37.48
2022-09-05T17:00:52.372Z,38.02
2022-09-05T17:03:28.913Z,38.26
2022-09-05T17:06:06.115Z,38.53
2022-09-05T17:08:36.758Z,38.68
2022-09-05T17:11:29.290Z,38.55
2022-09-05T17:14:07.083Z,38.80
2022-09-05T17:16:38.053Z,38.84
2022-09-05T17:19:16.282Z,38.83
2022-09-05T17:25:38.473Z,39.18
2022-09-05T17:29:16.083Z,39.52
2022-09-05T17:29:45.742Z,39.46
2022-09-05T17:33:49.564Z,39.75
2022-09-05T17:36:40.974Z,39.93
2022-09-05T17:39:35.968Z,39.91
2022-09-05T17:42:28.344Z,40.15
2022-09-05T17:45:10.344Z,40.57
2022-09-05T17:47:48.258Z,40.18
2022-09-05T17:50:43.763Z,40.16
2022-09-05T17:53:26.673Z,40.39
2022-09-05T17:56:33.938Z,40.15
2022-09-05T17:59:06.669Z,40.74
2022-09-05T18:01:36.375Z,40.95
2022-09-05T18:04:18.116Z,41.11
2022-09-05T18:06:59.713Z,40.86
2022-09-05T18:10:11.876Z,40.69
2022-09-05T18:13:13.487Z,41.11
2022-09-05T18:16:12.584Z,41.80
2022-09-05T18:19:32.371Z,41.82
2022-09-05T18:21:51.593Z,42.43
2022-09-05T18:24:32.767Z,42.13
2022-09-05T18:30:08.117Z,43.13
2022-09-05T18:32:45.479Z,42.52
2022-09-05T18:35:36.944Z,43.19
2022-09-05T18:38:50.954Z,43.32
2022-09-05T18:41:19.386Z,44.10
2022-09-05T18:44:13.579Z,44.32
2022-09-05T18:46:47.455Z,45.18
2022-09-05T18:50:22.346Z,46.15
2022-09-05T18:52:16.998Z,46.52
2022-09-05T18:56:09.736Z,46.33
2022-09-05T18:57:47.887Z,46.22
2022-09-05T19:00:24.634Z,46.53
2022-09-05T19:03:06.790Z,46.60
2022-09-05T19:05:41.760Z,46.51
2022-09-05T19:08:32.020Z,46.80
2022-09-05T19:11:01.910Z,47.21
2022-09-05T19:13:50.328Z,47.13
2022-09-05T19:16:43.570Z,46.93
2022-09-05T19:19:18.340Z,47.33
2022-09-05T19:21:56.191Z,47.01
2022-09-05T19:24:45.594Z,47.53
2022-09-05T19:28:35.031Z,47.89
2022-09-05T19:36:50.879Z,48.29
2022-09-05T19:36:55.345Z,49.01
2022-09-05T19:37:09.041Z,48.87
2022-09-05T19:38:53.447Z,49.10
2022-09-05T19:47:25.412Z,49.27
2022-09-05T19:47:38.165Z,49.22
2022-09-05T19:47:46.997Z,48.91
2022-09-05T19:50:11.455Z,48.80
2022-09-05T19:52:40.452Z,49.30
2022-09-05T19:55:21.809Z,49.54
2022-09-05T19:58:19.563Z,49.90
2022-09-05T20:00:42.131Z,50.45
2022-09-05T20:03:21.099Z,50.69
2022-09-05T20:05:50.739Z,50.83
2022-09-05T20:08:31.482Z,51.07
2022-09-05T20:11:04.088Z,51.11
2022-09-05T20:13:33.806Z,51.10
2022-09-05T20:16:02.130Z,51.05
2022-09-05T20:18:37.295Z,51.16
2022-09-05T20:21:09.924Z,51.52
2022-09-05T20:23:39.813Z,51.34
2022-09-05T20:26:10.906Z,50.93
2022-09-05T20:28:42.092Z,51.09
2022-09-05T20:31:16.014Z,50.98
2022-09-05T20:33:51.678Z,50.96
2022-09-05T20:43:08.621Z,51.36
2022-09-05T20:43:16.113Z,51.39
2022-09-05T20:43:30.175Z,51.71
2022-09-05T20:44:53.525Z,51.71
2022-09-05T20:54:08.737Z,52.00
2022-09-05T20:54:14.949Z,52.11
2022-09-05T20:54:32.249Z,51.99
2022-09-05T20:56:10.503Z,52.18
2022-09-05T20:58:39.837Z,52.20
2022-09-05T21:01:20.017Z,52.40
2022-09-05T21:03:58.574Z,52.56
2022-09-05T21:06:33.837Z,52.41
2022-09-05T21:09:24.531Z,52.79
2022-09-05T21:11:54.129Z,52.89
2022-09-05T21:14:23.980Z,52.96
2022-09-05T21:17:00.688Z,53.28
2022-09-05T21:19:31.421Z,53.40
2022-09-05T21:22:03.434Z,53.16
2022-09-05T21:24:31.386Z,53.08
2022-09-05T21:27:16.385Z,53.12
2022-09-05T21:29:44.289Z,53.33
2022-09-05T21:32:16.304Z,53.31
2022-09-05T21:34:48.639Z,53.68
2022-09-05T21:37:18.589Z,53.59
2022-09-05T21:39:58.711Z,54.00
2022-09-05T21:46:39.998Z,53.50
2022-09-05T21:47:47.726Z,53.10
2022-09-05T21:48:08.232Z,53.37
2022-09-05T21:50:40.786Z,53.87
2022-09-05T21:55:51.745Z,53.64
2022-09-05T21:59:16.681Z,53.08
2022-09-05T21:59:25.801Z,53.22
2022-09-05T22:01:51.346Z,53.26
2022-09-05T22:04:22.105Z,53.22
2022-09-05T22:06:50.686Z,53.06
2022-09-05T22:09:19.605Z,53.29
2022-09-05T22:11:50.393Z,53.23
2022-09-05T22:14:18.653Z,53.41
2022-09-05T22:16:47.326Z,53.62
2022-09-05T22:19:17.777Z,53.33
2022-09-05T22:21:46.947Z,53.38
2022-09-05T22:24:14.736Z,53.70
2022-09-05T22:27:12.335Z,54.13
2022-09-05T22:29:35.356Z,54.69
2022-09-05T22:32:05.215Z,54.96
2022-09-05T22:34:33.239Z,54.77
2022-09-05T22:37:02.443Z,54.54
2022-09-05T22:39:36.762Z,54.59
2022-09-05T22:42:09.998Z,54.78
2022-09-05T22:44:39.386Z,54.99
2022-09-05T22:47:07.606Z,55.00
2022-09-05T22:49:36.351Z,55.12
2022-09-05T22:52:06.213Z,55.15
2022-09-05T22:54:34.035Z,55.41
2022-09-05T22:57:01.770Z,55.45
2022-09-05T22:59:29.820Z,55.50
2022-09-05T23:01:57.844Z,55.78
2022-09-05T23:04:25.798Z,55.52
2022-09-05T23:06:53.641Z,55.91
2022-09-05T23:09:22.802Z,56.17
2022-09-05T23:11:50.466Z,55.83
2022-09-05T23:14:18.221Z,56.14
2022-09-05T23:16:45.917Z,56.88
2022-09-05T23:19:13.615Z,56.77
2022-09-05T23:21:41.357Z,56.75
2022-09-05T23:24:08.996Z,56.36
2022-09-05T23:26:38.022Z,56.81
2022-09-05T23:29:05.737Z,56.72
2022-09-05T23:31:33.438Z,56.71
2022-09-05T23:34:01.135Z,56.73
2022-09-05T23:36:28.879Z,57.14
2022-09-05T23:38:56.658Z,57.34
2022-09-05T23:41:24.397Z,57.07
2022-09-05T23:43:53.655Z,56.85
2022-09-05T23:46:21.420Z,56.39
2022-09-05T23:48:49.115Z,56.57
2022-09-05T23:51:16.814Z,56.69
2022-09-05T23:53:45.972Z,56.56
2022-09-05T23:56:13.623Z,56.20
2022-09-05T23:58:41.391Z,56.64
